Time;durP1;ratioP1;P1;durP2;ratioP2;P2;SDS_P1;SDS_P2;PMS_P1;PMS_P2;Temp;Humidity;BMP_temperature;BMP_pressure;BME280_temperature;BME280_humidity;BME280_pressure;Samples;Min_cycle;Max_cycle;Signal;HPM_P1;HPM_P2
2021/10/18 00:00:08;;;;;;;22.80;9.88;;;;;;;2.30;92.97;100450.98;1692052;83;21107;-78
2021/10/18 00:02:36;;;;;;;19.07;9.18;;;;;;;2.33;93.19;100446.66;1719819;83;21114;-79
2021/10/18 00:05:06;;;;;;;12.33;6.85;;;;;;;2.35;92.96;100446.20;1708503;83;21523;-80
2021/10/18 00:07:32;;;;;;;18.55;9.03;;;;;;;2.36;92.80;100448.81;1692336;83;21095;-81
2021/10/18 00:09:59;;;;;;;14.87;8.35;;;;;;;2.38;92.82;100441.89;1720566;83;21711;-80
2021/10/18 00:12:26;;;;;;;20.45;8.15;;;;;;;2.41;92.67;100436.68;1719944;83;21070;-78
2021/10/18 00:14:55;;;;;;;23.20;9.98;;;;;;;2.43;92.48;100438.00;1720515;83;21107;-80
2021/10/18 00:17:21;;;;;;;21.12;9.15;;;;;;;2.45;92.29;100436.27;1720050;83;21614;-79
2021/10/18 00:19:50;;;;;;;18.52;9.23;;;;;;;2.45;92.19;100431.92;1720007;83;21071;-81
2021/10/18 00:22:17;;;;;;;23.27;9.40;;;;;;;2.47;92.12;100431.94;1700147;83;21087;-78
2021/10/18 00:24:48;;;;;;;20.88;10.10;;;;;;;2.47;92.19;100426.73;1691252;84;21150;-79
2021/10/18 00:27:14;;;;;;;19.62;10.03;;;;;;;2.49;92.60;100425.02;1691004;84;21165;-79
2021/10/18 00:29:42;;;;;;;23.07;11.20;;;;;;;2.52;92.37;100430.20;1690807;83;21047;-81
2021/10/18 00:32:10;;;;;;;21.57;10.15;;;;;;;2.52;92.18;100432.80;1691453;84;21090;-81
2021/10/18 00:34:38;;;;;;;22.10;9.70;;;;;;;2.51;91.99;100433.69;1691745;83;21174;-83
2021/10/18 00:37:04;;;;;;;20.90;9.95;;;;;;;2.50;92.16;100424.13;1691942;84;21630;-81
2021/10/18 00:39:31;;;;;;;25.90;10.78;;;;;;;2.50;92.14;100429.33;1691302;84;22426;-81
2021/10/18 00:41:59;;;;;;;24.92;10.05;;;;;;;2.52;92.11;100435.41;1691413;84;21075;-82
2021/10/18 00:44:26;;;;;;;25.52;11.05;;;;;;;2.52;92.59;100435.41;1691280;84;21117;-82
2021/10/18 00:46:52;;;;;;;23.90;9.35;;;;;;;2.53;92.69;100433.22;1691787;84;21086;-81
2021/10/18 00:49:19;;;;;;;16.80;7.85;;;;;;;2.55;92.30;100429.34;1691155;84;21253;-82
2021/10/18 00:51:46;;;;;;;23.38;9.10;;;;;;;2.55;92.21;100431.49;1691429;84;21091;-82
2021/10/18 00:54:12;;;;;;;20.62;9.05;;;;;;;2.57;92.27;100433.66;1691453;84;21134;-82
2021/10/18 00:56:39;;;;;;;25.20;9.25;;;;;;;2.57;92.21;100432.36;1691412;84;21666;-82
2021/10/18 00:59:06;;;;;;;22.25;7.08;;;;;;;2.59;92.41;100429.34;1691372;84;21153;-82
2021/10/18 01:01:32;;;;;;;17.62;6.08;;;;;;;2.61;92.61;100435.41;1691484;84;21094;-82
2021/10/18 01:03:59;;;;;;;23.02;9.03;;;;;;;2.63;92.56;100427.62;1696792;83;21165;-82
2021/10/18 01:06:26;;;;;;;15.15;6.90;;;;;;;2.64;92.48;100425.00;1691668;83;21067;-83
2021/10/18 01:08:52;;;;;;;17.02;7.90;;;;;;;2.64;92.07;100425.00;1691658;84;21661;-81
2021/10/18 01:11:19;;;;;;;20.60;8.45;;;;;;;2.65;92.10;100421.55;1690997;84;21620;-82
2021/10/18 01:13:46;;;;;;;21.07;9.48;;;;;;;2.67;92.25;100422.86;1691442;84;21240;-82
2021/10/18 01:16:14;;;;;;;17.00;9.28;;;;;;;2.68;92.59;100420.67;1691708;84;21128;-83
2021/10/18 01:18:42;;;;;;;19.32;8.55;;;;;;;2.71;92.84;100421.55;1691324;84;21056;-84
2021/10/18 01:21:08;;;;;;;20.85;9.10;;;;;;;2.73;92.51;100415.03;1677906;83;21570;-84
2021/10/18 01:23:34;;;;;;;20.57;9.48;;;;;;;2.73;91.92;100411.99;1683115;85;21608;-84
2021/10/18 01:26:01;;;;;;;20.55;9.25;;;;;;;2.73;91.53;100414.59;1683691;85;21011;-84
2021/10/18 01:28:27;;;;;;;24.52;9.63;;;;;;;2.75;91.05;100412.44;1683173;85;21099;-84
2021/10/18 01:30:53;;;;;;;17.87;8.88;;;;;;;2.77;90.72;100414.61;1698884;84;21126;-78
2021/10/18 01:33:20;;;;;;;18.90;9.05;;;;;;;2.76;90.94;100412.86;1694033;84;21591;-81
2021/10/18 01:35:46;;;;;;;19.15;9.13;;;;;;;2.73;90.68;100413.29;1687575;83;21058;-83
2021/10/18 01:38:13;;;;;;;20.10;9.70;;;;;;;2.69;90.92;100412.88;1694749;84;21089;-80
2021/10/18 01:40:39;;;;;;;21.75;8.88;;;;;;;2.65;90.94;100417.64;1694845;84;21960;-83
2021/10/18 01:43:06;;;;;;;21.75;8.63;;;;;;;2.57;91.10;100420.66;1696142;84;21734;-81
2021/10/18 01:45:33;;;;;;;10.25;5.45;;;;;;;2.50;91.44;100416.33;1696660;84;21825;-85
2021/10/18 01:47:59;;;;;;;18.80;8.10;;;;;;;2.43;92.08;100422.39;1698987;79;20971;-82
2021/10/18 01:50:26;;;;;;;16.32;9.03;;;;;;;2.34;92.21;100411.55;1698188;84;21075;-77
2021/10/18 01:52:54;;;;;;;17.45;8.35;;;;;;;2.27;92.19;100415.02;1697591;84;21168;-79
2021/10/18 01:55:21;;;;;;;5.65;3.77;;;;;;;2.20;92.49;100426.27;1694832;84;21037;-80
2021/10/18 01:57:49;;;;;;;20.08;8.25;;;;;;;2.14;92.46;100420.64;1694272;84;21176;-78
2021/10/18 02:00:17;;;;;;;16.77;7.80;;;;;;;2.10;92.86;100426.69;1694478;84;21042;-80
2021/10/18 02:02:46;;;;;;;20.40;9.53;;;;;;;2.06;92.86;100418.44;1694183;84;21081;-81
2021/10/18 02:05:13;;;;;;;20.45;10.48;;;;;;;2.05;93.05;100418.02;1680816;84;21095;-81
2021/10/18 02:07:39;;;;;;;22.70;9.68;;;;;;;2.03;93.50;100415.84;1666625;86;22312;-81
2021/10/18 02:10:08;;;;;;;22.55;10.78;;;;;;;2.04;93.96;100424.06;1666689;86;21172;-79
2021/10/18 02:12:36;;;;;;;27.50;11.12;;;;;;;2.03;94.33;100422.34;1666465;86;20986;-79
2021/10/18 02:15:05;;;;;;;24.07;10.30;;;;;;;2.02;94.65;100417.98;1666605;86;21042;-80
2021/10/18 02:17:32;;;;;;;21.37;9.93;;;;;;;2.03;94.58;100428.84;1666906;86;21123;-80
2021/10/18 02:19:58;;;;;;;21.50;8.75;;;;;;;2.02;94.31;100424.48;1666601;86;21061;-81
2021/10/18 02:22:25;;;;;;;17.67;9.85;;;;;;;2.03;94.55;100426.23;1666303;84;21060;-82
2021/10/18 02:24:52;;;;;;;22.82;8.45;;;;;;;2.04;95.11;100416.27;1666610;86;21114;-80
2021/10/18 02:27:19;;;;;;;17.75;7.53;;;;;;;2.08;95.50;100423.21;1680652;84;21074;-80
2021/10/18 02:29:45;;;;;;;18.70;9.13;;;;;;;2.09;95.61;100425.83;1694774;84;21550;-81
2021/10/18 02:32:12;;;;;;;20.48;9.80;;;;;;;2.14;95.88;100420.64;1694504;84;21093;-80
2021/10/18 02:35:25;;;;;;;23.67;9.80;;;;;;;2.21;95.85;100411.98;1796599;79;24599;-83
2021/10/18 02:37:51;;;;;;;22.30;10.05;;;;;;;2.20;95.83;100407.64;1751212;80;21018;-83
2021/10/18 02:40:18;;;;;;;21.05;10.63;;;;;;;2.24;95.75;100404.19;1748334;82;21157;-84
2021/10/18 02:42:44;;;;;;;20.30;9.55;;;;;;;2.28;95.57;100408.97;1748120;82;21116;-81
2021/10/18 02:45:12;;;;;;;21.17;10.03;;;;;;;2.29;95.51;100409.39;1748408;82;21552;-81
2021/10/18 02:47:38;;;;;;;22.15;10.28;;;;;;;2.33;95.40;100408.53;1748309;82;21038;-80
2021/10/18 02:50:07;;;;;;;20.30;9.40;;;;;;;2.36;95.34;100405.06;1737735;82;21088;-79
2021/10/18 02:52:33;;;;;;;24.23;10.58;;;;;;;2.39;95.33;100410.25;1703273;84;21812;-80
2021/10/18 02:55:02;;;;;;;18.45;9.05;;;;;;;2.42;95.51;100402.48;1703292;84;21117;-80
2021/10/18 02:57:28;;;;;;;16.65;8.78;;;;;;;2.45;95.49;100403.77;1703050;83;21109;-80
2021/10/18 02:59:55;;;;;;;19.12;9.00;;;;;;;2.48;95.40;100398.56;1703353;83;21105;-80
2021/10/18 03:02:21;;;;;;;11.80;6.55;;;;;;;2.52;95.37;100397.70;1738545;82;21128;-82
2021/10/18 03:04:49;;;;;;;16.15;6.75;;;;;;;2.55;95.50;100396.39;1683274;85;21246;-82
2021/10/18 03:07:15;;;;;;;23.38;9.53;;;;;;;2.60;95.84;100399.88;1708165;84;21124;-82
2021/10/18 03:09:42;;;;;;;16.75;6.22;;;;;;;2.67;95.86;100399.02;1708855;84;21569;-83
2021/10/18 03:12:10;;;;;;;9.80;4.80;;;;;;;2.71;95.61;100393.36;1709005;83;21066;-84
2021/10/18 03:14:37;;;;;;;19.27;9.35;;;;;;;2.79;95.72;100393.37;1709002;84;21016;-83
2021/10/18 03:17:03;;;;;;;9.18;5.72;;;;;;;2.84;95.86;100389.02;1693950;84;21138;-83
2021/10/18 03:19:30;;;;;;;17.17;8.85;;;;;;;2.88;95.85;100385.55;1712073;83;21027;-84
2021/10/18 03:22:01;;;;;;;13.53;5.97;;;;;;;2.94;96.07;100387.72;1712227;84;21023;-84
2021/10/18 03:25:05;;;;;;;;;;;;;;;;;;;;;
2021/10/18 03:27:48;;;;;;;16.05;8.60;;;;;;;2.88;95.96;100351.73;1683832;84;21621;-83
2021/10/18 03:30:42;;;;;;;13.58;7.35;;;;;;;3.10;95.72;100384.62;1706494;83;21115;-85
2021/10/18 03:33:13;;;;;;;12.55;6.53;;;;;;;3.14;95.91;100382.45;1702546;83;21592;-84
2021/10/18 03:35:41;;;;;;;13.20;6.95;;;;;;;3.20;96.01;100372.88;1707994;83;21557;-83
2021/10/18 03:38:08;;;;;;;18.12;9.18;;;;;;;3.25;96.12;100375.06;1692834;83;21096;-85
2021/10/18 03:40:35;;;;;;;17.62;7.25;;;;;;;3.28;96.20;100374.59;1697841;84;21130;-84
2021/10/18 03:43:02;;;;;;;17.32;9.35;;;;;;;3.32;96.04;100374.16;1696164;84;21197;-85
2021/10/18 03:45:29;;;;;;;15.72;8.33;;;;;;;3.35;95.97;100374.14;1705156;84;21066;-78
2021/10/18 03:47:55;;;;;;;17.57;8.60;;;;;;;3.39;96.08;100369.36;1690438;84;21131;-79
2021/10/18 03:50:22;;;;;;;20.50;9.10;;;;;;;3.44;96.45;100363.69;1678012;84;21140;-78
2021/10/18 03:52:49;;;;;;;19.35;9.33;;;;;;;3.48;96.60;100371.07;1677992;85;21029;-76
2021/10/18 03:55:15;;;;;;;20.20;9.55;;;;;;;3.53;96.58;100362.35;1677619;85;21688;-76
2021/10/18 03:57:42;;;;;;;20.32;11.60;;;;;;;3.57;96.52;100358.87;1677816;85;21068;-75
2021/10/18 04:00:10;;;;;;;40.00;17.60;;;;;;;3.60;96.03;100358.42;1677313;85;21088;-76
2021/10/18 04:02:41;;;;;;;40.17;19.12;;;;;;;3.62;96.01;100356.23;1677581;85;21097;-74
2021/10/18 04:05:09;;;;;;;36.03;17.55;;;;;;;3.65;95.32;100358.81;1696813;83;21071;-75
2021/10/18 04:07:40;;;;;;;31.25;15.48;;;;;;;3.69;95.52;100359.69;1706923;84;22047;-77
2021/10/18 04:10:07;;;;;;;19.17;9.40;;;;;;;3.72;95.70;100360.52;1705338;84;21093;-77
2021/10/18 04:12:34;;;;;;;22.07;9.23;;;;;;;3.74;95.09;100356.16;1704996;84;21069;-77
2021/10/18 04:15:01;;;;;;;16.27;8.40;;;;;;;3.77;95.10;100360.48;1705373;84;21069;-76
2021/10/18 04:17:29;;;;;;;17.95;8.18;;;;;;;3.78;94.91;100362.23;1705638;84;21140;-77
2021/10/18 04:19:56;;;;;;;12.88;7.10;;;;;;;3.79;94.82;100363.95;1705906;84;21119;-76
2021/10/18 04:22:22;;;;;;;23.22;10.38;;;;;;;3.79;94.46;100361.34;1705714;84;21703;-77
2021/10/18 04:24:49;;;;;;;24.75;9.95;;;;;;;3.78;94.47;100363.09;1705980;84;21041;-78
2021/10/18 04:27:21;;;;;;;33.08;13.90;;;;;;;3.76;94.40;100363.98;1706715;84;21136;-79
2021/10/18 04:29:49;;;;;;;27.77;12.85;;;;;;;3.74;94.48;100371.80;1706596;84;21605;-78
2021/10/18 04:32:15;;;;;;;26.75;13.03;;;;;;;3.70;94.80;100370.52;1706684;84;21939;-77
2021/10/18 04:34:43;;;;;;;20.32;11.12;;;;;;;3.69;94.96;100373.56;1695721;83;21576;-77
2021/10/18 04:37:10;;;;;;;30.30;13.03;;;;;;;3.66;95.33;100376.20;1672853;83;21069;-78
2021/10/18 04:39:37;;;;;;;46.92;16.87;;;;;;;3.65;95.45;100367.94;1668808;86;21349;-75
2021/10/18 04:42:04;;;;;;;39.20;15.30;;;;;;;3.65;95.53;100370.98;1659831;85;21035;-79
2021/10/18 04:44:30;;;;;;;35.33;16.02;;;;;;;3.65;95.77;100376.19;1707175;83;21941;-82
2021/10/18 04:46:57;;;;;;;37.40;15.08;;;;;;;3.67;95.38;100377.05;1671824;84;21160;-81
2021/10/18 04:49:23;;;;;;;32.38;14.75;;;;;;;3.68;95.35;100381.38;1680995;85;21065;-79
2021/10/18 04:51:50;;;;;;;31.00;13.48;;;;;;;3.72;95.38;100384.40;1680842;85;21124;-78
2021/10/18 04:54:16;;;;;;;35.98;14.05;;;;;;;3.77;95.46;100373.52;1680568;85;21354;-77
2021/10/18 04:56:42;;;;;;;27.73;13.18;;;;;;;3.81;95.48;100372.63;1680482;85;21511;-79
2021/10/18 04:59:09;;;;;;;32.88;13.30;;;;;;;3.87;95.51;100376.95;1681010;85;21092;-82
2021/10/18 05:01:35;;;;;;;37.15;14.20;;;;;;;3.92;94.49;100382.55;1681270;85;21053;-82
2021/10/18 05:04:01;;;;;;;25.90;10.60;;;;;;;3.95;93.83;100382.53;1681002;85;21021;-82
2021/10/18 05:06:28;;;;;;;23.83;10.90;;;;;;;3.97;93.65;100387.74;1674674;84;21059;-82
2021/10/18 05:08:55;;;;;;;18.23;9.08;;;;;;;4.03;93.98;100390.77;1681128;84;21201;-81
2021/10/18 05:11:30;;;;;;;21.50;8.80;;;;;;;4.07;94.38;100385.52;1698442;84;21078;-84
2021/10/18 05:14:02;;;;;;;29.55;12.82;;;;;;;4.12;94.44;100388.10;1697304;84;21089;-84
2021/10/18 05:16:30;;;;;;;33.90;13.50;;;;;;;4.19;94.73;100395.86;1696467;84;21821;-84
2021/10/18 05:18:57;;;;;;;35.03;15.28;;;;;;;4.28;94.80;100405.37;1674842;83;21111;-86
2021/10/18 05:21:23;;;;;;;39.08;14.70;;;;;;;4.35;95.08;100401.84;1678392;84;21143;-83
2021/10/18 05:23:50;;;;;;;28.73;13.43;;;;;;;4.44;95.00;100397.41;1666116;85;21374;-85
2021/10/18 05:26:16;;;;;;;31.75;13.98;;;;;;;4.52;95.04;100400.84;1682805;84;21159;-84
2021/10/18 05:28:42;;;;;;;27.52;12.20;;;;;;;4.62;95.69;100403.37;1675040;85;21080;-84
2021/10/18 05:31:10;;;;;;;29.72;13.50;;;;;;;4.73;95.63;100408.92;1683245;84;21021;-82
2021/10/18 05:33:37;;;;;;;25.02;11.90;;;;;;;4.82;95.16;100407.09;1666740;85;21525;-84
2021/10/18 05:36:04;;;;;;;30.15;12.47;;;;;;;4.93;94.50;100409.61;1665420;85;21681;-83
2021/10/18 05:38:34;;;;;;;29.00;11.50;;;;;;;5.02;94.21;100407.36;1675557;84;21143;-84
2021/10/18 05:41:00;;;;;;;27.35;11.80;;;;;;;5.11;93.44;100417.70;1695550;84;21689;-84
2021/10/18 05:43:27;;;;;;;19.92;9.98;;;;;;;5.21;92.58;100417.17;1690854;84;21022;-85
2021/10/18 05:45:53;;;;;;;15.18;8.88;;;;;;;5.28;91.93;100414.05;1684751;84;22184;-82
2021/10/18 05:48:20;;;;;;;25.60;10.93;;;;;;;5.36;91.84;100417.43;1667188;86;21117;-83
2021/10/18 05:50:49;;;;;;;26.77;11.05;;;;;;;5.43;91.76;100425.65;1672025;85;21073;-83
2021/10/18 05:53:54;;;;;;;29.77;11.97;;;;;;;5.48;90.53;100421.23;1646105;85;21097;-83
2021/10/18 05:56:35;;;;;;;24.18;10.58;;;;;;;5.51;88.96;100423.80;1616484;84;20983;-83
2021/10/18 05:59:11;;;;;;;25.37;10.82;;;;;;;5.56;86.82;100426.36;1668277;85;21061;-83
2021/10/18 06:02:03;;;;;;;24.87;11.08;;;;;;;5.59;85.22;100430.23;1619317;86;21010;-83
2021/10/18 06:04:33;;;;;;;23.70;10.15;;;;;;;5.62;85.11;100436.30;1669731;86;20972;-87
2021/10/18 06:07:00;;;;;;;24.25;9.25;;;;;;;5.66;84.83;100431.47;1680966;84;21085;-83
2021/10/18 06:09:27;;;;;;;23.30;9.90;;;;;;;5.72;84.55;100434.88;1695963;84;21166;-80
2021/10/18 06:11:55;;;;;;;25.00;10.25;;;;;;;5.77;84.76;100439.59;1678908;83;21132;-78
2021/10/18 06:14:21;;;;;;;19.95;10.40;;;;;;;5.80;84.69;100434.36;1666602;84;22387;-77
2021/10/18 06:16:48;;;;;;;20.32;9.98;;;;;;;5.85;84.65;100440.38;1659429;85;21560;-77
2021/10/18 06:19:14;;;;;;;22.02;9.75;;;;;;;5.89;84.74;100440.32;1657242;85;21065;-78
2021/10/18 06:21:41;;;;;;;17.50;9.90;;;;;;;5.97;84.80;100444.17;1659375;85;21018;-79
2021/10/18 06:24:08;;;;;;;16.70;10.10;;;;;;;6.00;83.81;100446.73;1680682;84;21130;-78
2021/10/18 06:26:35;;;;;;;27.93;10.78;;;;;;;6.07;83.72;100449.72;1682201;84;21086;-78
2021/10/18 06:29:03;;;;;;;20.62;10.15;;;;;;;6.12;83.67;100439.19;1680978;84;21236;-79
2021/10/18 06:31:30;;;;;;;24.50;9.73;;;;;;;6.18;82.18;100452.16;1650378;85;21085;-78
2021/10/18 06:33:57;;;;;;;23.18;9.28;;;;;;;6.22;80.10;100448.62;1688193;84;21089;-78
2021/10/18 06:36:24;;;;;;;18.15;9.53;;;;;;;6.26;81.17;100445.09;1669570;84;21198;-78
2021/10/18 06:38:50;;;;;;;17.12;8.55;;;;;;;6.31;81.13;100445.02;1680172;84;21117;-78
2021/10/18 06:41:18;;;;;;;23.95;9.85;;;;;;;6.35;80.50;100455.87;1701809;83;21141;-78
2021/10/18 06:43:45;;;;;;;19.98;9.38;;;;;;;6.40;80.91;100461.89;1703759;83;21579;-77
2021/10/18 06:46:12;;;;;;;23.38;9.85;;;;;;;6.44;80.71;100462.27;1675762;84;21136;-79
2021/10/18 06:48:38;;;;;;;18.75;9.08;;;;;;;6.50;79.95;100458.69;1679894;84;21928;-78
2021/10/18 06:51:05;;;;;;;17.35;8.08;;;;;;;6.57;79.75;100459.01;1685140;84;21720;-77
2021/10/18 06:53:34;;;;;;;22.22;8.78;;;;;;;6.62;78.89;100460.25;1707319;83;21077;-79
2021/10/18 06:56:04;;;;;;;18.17;9.55;;;;;;;6.68;79.08;100454.92;1693105;83;21527;-78
2021/10/18 06:58:30;;;;;;;18.73;9.25;;;;;;;6.73;79.55;100463.11;1671545;84;21036;-78
2021/10/18 07:00:56;;;;;;;18.55;8.33;;;;;;;6.79;79.40;100459.55;1669142;84;21053;-78
2021/10/18 07:03:23;;;;;;;19.77;9.40;;;;;;;6.82;79.26;100457.32;1679323;84;21200;-78
2021/10/18 07:05:49;;;;;;;14.10;7.10;;;;;;;6.90;78.62;100457.63;1682563;84;21585;-79
2021/10/18 07:08:16;;;;;;;16.25;9.10;;;;;;;6.96;79.11;100459.26;1674040;84;21083;-79
2021/10/18 07:10:43;;;;;;;16.52;9.18;;;;;;;7.06;79.24;100461.27;1668536;84;21559;-79
2021/10/18 07:13:10;;;;;;;16.65;8.88;;;;;;;7.13;77.61;100454.61;1680912;84;21297;-79
2021/10/18 07:15:38;;;;;;;21.60;10.00;;;;;;;7.23;77.18;100456.61;1673067;84;21132;-79
2021/10/18 07:18:06;;;;;;;20.45;10.80;;;;;;;7.31;77.36;100456.00;1683685;83;21106;-76
2021/10/18 07:20:33;;;;;;;23.20;9.58;;;;;;;7.39;75.93;100453.72;1678561;84;21509;-79
2021/10/18 07:23:01;;;;;;;25.72;9.18;;;;;;;7.50;74.78;100456.55;1667780;84;20999;-79
2021/10/18 07:25:28;;;;;;;17.25;8.30;;;;;;;7.57;74.55;100452.05;1674784;84;21081;-79
2021/10/18 07:27:55;;;;;;;21.55;9.83;;;;;;;7.71;74.21;100456.56;1673912;84;21108;-81
2021/10/18 07:30:25;;;;;;;20.90;10.30;;;;;;;7.84;72.16;100453.69;1674070;84;21052;-79
2021/10/18 07:32:54;;;;;;;17.90;9.25;;;;;;;8.06;71.49;100454.11;1683460;83;21021;-79
2021/10/18 07:35:26;;;;;;;19.65;9.83;;;;;;;8.47;69.47;100447.12;1699903;83;21086;-80
2021/10/18 07:37:54;;;;;;;18.82;8.53;;;;;;;8.96;68.48;100441.52;1676703;84;21208;-80
2021/10/18 07:40:31;;;;;;;18.87;9.28;;;;;;;9.56;67.21;100440.38;1662859;85;21069;-80
2021/10/18 07:43:01;;;;;;;19.82;8.95;;;;;;;10.12;65.41;100434.38;1645808;87;21564;-80
2021/10/18 07:45:29;;;;;;;21.57;9.68;;;;;;;10.54;61.70;100433.54;1647430;85;21151;-80
2021/10/18 07:47:56;;;;;;;21.48;8.98;;;;;;;10.72;62.13;100426.83;1682721;84;21028;-81
2021/10/18 07:50:23;;;;;;;19.45;9.58;;;;;;;10.82;59.08;100435.28;1704111;82;21381;-82
2021/10/18 07:52:51;;;;;;;18.75;10.15;;;;;;;10.70;58.13;100421.59;1713080;82;21044;-80
2021/10/18 07:55:19;;;;;;;21.62;9.60;;;;;;;10.58;58.71;100427.27;1723285;82;21042;-81
2021/10/18 07:57:50;;;;;;;;;;;;;;;10.47;58.31;100429.38;1708548;82;21128;-80
2021/10/18 08:00:18;;;;;;;23.50;10.15;;;;;;;10.25;58.96;100426.05;1710346;82;20463;-79
2021/10/18 08:02:45;;;;;;;24.02;10.70;;;;;;;10.05;59.57;100427.11;1672960;85;21280;-76
2021/10/18 08:05:17;;;;;;;18.92;9.93;;;;;;;9.94;60.46;100434.45;1667917;84;21065;-81
2021/10/18 08:07:50;;;;;;;19.67;10.15;;;;;;;9.88;60.68;100439.00;1683563;84;21512;-80
2021/10/18 08:10:26;;;;;;;19.62;10.35;;;;;;;9.84;61.34;100436.05;1676407;84;21132;-82
2021/10/18 08:12:54;;;;;;;20.82;9.95;;;;;;;9.86;61.43;100431.61;1680293;84;21596;-83
2021/10/18 08:15:22;;;;;;;23.22;11.08;;;;;;;9.84;60.55;100437.36;1671913;84;21105;-83
2021/10/18 08:17:49;;;;;;;19.50;10.20;;;;;;;9.72;61.05;100437.72;1692694;84;21141;-84
2021/10/18 08:20:20;;;;;;;22.05;9.83;;;;;;;9.67;61.26;100438.31;1675156;84;21658;-82
2021/10/18 08:23:00;;;;;;;22.00;10.03;;;;;;;9.65;61.25;100431.77;1668662;86;21061;-82
2021/10/18 08:25:31;;;;;;;26.15;10.50;;;;;;;9.69;61.51;100432.56;1670282;86;21074;-82
2021/10/18 08:27:58;;;;;;;20.92;10.10;;;;;;;9.79;61.06;100434.01;1669712;84;21188;-85
2021/10/18 08:30:24;;;;;;;20.00;10.70;;;;;;;9.94;61.04;100434.45;1674510;85;21073;-83
2021/10/18 08:32:54;;;;;;;23.65;11.12;;;;;;;10.15;60.40;100431.20;1674393;85;21065;-83
2021/10/18 08:35:34;;;;;;;24.52;11.18;;;;;;;10.43;59.50;100427.75;1670524;83;21078;-82
2021/10/18 08:41:01;;;;;;;25.27;10.40;;;;;;;10.91;57.20;100424.43;1691588;84;21519;-84
2021/10/18 08:45:47;;;;;;;26.25;10.50;;;;;;;11.30;57.19;100418.70;1653196;85;21042;-84
2021/10/18 08:48:14;;;;;;;20.68;10.68;;;;;;;11.46;56.42;100421.66;1700160;84;21193;-83
2021/10/18 08:50:40;;;;;;;26.02;11.65;;;;;;;11.48;55.40;100410.13;1713538;83;21061;-82
2021/10/18 08:53:06;;;;;;;20.43;10.45;;;;;;;11.51;55.21;100410.47;1701654;84;21719;-83
2021/10/18 08:55:41;;;;;;;27.30;11.60;;;;;;;11.55;55.14;100416.90;1709899;83;21079;-84
2021/10/18 08:58:08;;;;;;;24.07;11.15;;;;;;;11.50;55.23;100420.17;1699776;84;21563;-82
2021/10/18 09:00:42;;;;;;;26.70;11.00;;;;;;;11.52;55.11;100418.30;1709613;83;21053;-83
2021/10/18 09:03:24;;;;;;;21.93;11.15;;;;;;;11.50;54.96;100417.53;1694080;84;21049;-86
2021/10/18 09:05:54;;;;;;;20.08;10.20;;;;;;;11.46;55.31;100417.23;1683077;85;21480;-85
2021/10/18 09:08:44;;;;;;;18.73;10.13;;;;;;;11.51;54.35;100419.23;1699678;83;21085;-86
2021/10/18 09:11:27;;;;;;;19.60;9.53;;;;;;;11.53;54.76;100415.23;1689947;84;21561;-86
2021/10/18 09:13:59;;;;;;;23.40;9.90;;;;;;;11.58;54.64;100412.43;1681084;85;21064;-86
2021/10/18 09:16:42;;;;;;;16.55;10.05;;;;;;;11.60;54.86;100406.64;1681559;85;21052;-86
2021/10/18 09:19:24;;;;;;;19.10;10.65;;;;;;;11.59;54.60;100414.14;1665224;85;21139;-86
2021/10/18 09:21:55;;;;;;;24.57;10.13;;;;;;;11.45;54.39;100410.22;1662906;85;21092;-86
2021/10/18 09:24:36;;;;;;;18.10;10.88;;;;;;;11.40;55.04;100409.53;1665974;85;21137;-85
2021/10/18 09:27:18;;;;;;;21.40;10.85;;;;;;;11.42;54.87;100405.06;1675127;84;21271;-87
2021/10/18 09:29:48;;;;;;;22.62;10.23;;;;;;;11.58;55.26;100407.16;1672196;84;21124;-87
2021/10/18 09:32:20;;;;;;;24.30;11.48;;;;;;;11.81;55.95;100404.98;1670062;86;21093;-85
2021/10/18 09:34:47;;;;;;;23.42;10.75;;;;;;;11.92;55.18;100405.00;1693530;84;21074;-87
2021/10/18 09:37:15;;;;;;;17.37;9.75;;;;;;;12.00;54.78;100407.34;1690619;83;21057;-86
2021/10/18 09:39:47;;;;;;;19.35;11.28;;;;;;;12.07;57.49;100400.89;1687871;85;21101;-87
2021/10/18 09:42:19;;;;;;;21.60;11.40;;;;;;;12.18;54.60;100401.34;1663128;85;21106;-85
2021/10/18 10:51:06;;;;;;;16.95;9.63;;;;;;;12.84;51.83;100353.32;1674604;84;21561;-77
2021/10/18 10:53:51;;;;;;;22.40;9.33;;;;;;;12.98;50.96;100353.61;1644346;84;21096;-80
2021/10/18 10:56:44;;;;;;;20.40;9.95;;;;;;;13.12;50.32;100349.89;1683356;83;21455;-81
2021/10/18 10:59:21;;;;;;;15.00;8.08;;;;;;;13.21;50.34;100350.81;1684944;83;21035;-80
2021/10/18 11:02:05;;;;;;;19.65;9.30;;;;;;;13.23;51.17;100344.99;1684392;83;21057;-80
2021/10/18 11:04:37;;;;;;;16.57;9.43;;;;;;;13.26;50.12;100340.50;1676011;85;21065;-81
2021/10/18 11:07:08;;;;;;;21.90;8.70;;;;;;;13.25;48.93;100349.34;1684813;85;21090;-79
2021/10/18 11:09:41;;;;;;;16.67;7.75;;;;;;;13.18;48.62;100344.34;1685833;83;21646;-80
2021/10/18 11:12:35;;;;;;;16.07;7.78;;;;;;;13.16;48.59;100342.23;1685247;83;21444;-76
2021/10/18 11:15:21;;;;;;;13.68;7.03;;;;;;;13.16;48.06;100341.38;1685039;83;21125;-79
2021/10/18 11:17:50;;;;;;;18.42;8.83;;;;;;;13.14;49.34;100342.75;1678796;83;21050;-78
2021/10/18 11:20:24;;;;;;;14.23;7.35;;;;;;;13.09;48.34;100339.47;1705183;83;21578;-79
2021/10/18 11:22:57;;;;;;;14.83;7.58;;;;;;;12.99;47.64;100336.81;1706754;83;21179;-78
2021/10/18 11:25:30;;;;;;;13.55;7.30;;;;;;;12.87;48.65;100336.88;1682972;83;21084;-78
2021/10/18 11:28:00;;;;;;;18.30;7.83;;;;;;;12.72;47.95;100339.73;1681767;83;21599;-76
2021/10/18 11:30:29;;;;;;;14.80;7.83;;;;;;;12.55;49.04;100338.25;1681654;83;21108;-79
2021/10/18 11:33:02;;;;;;;16.00;7.83;;;;;;;12.45;48.87;100331.64;1681245;85;21056;-80
2021/10/18 11:35:34;;;;;;;16.73;8.00;;;;;;;12.32;48.68;100336.09;1681318;85;21107;-81
2021/10/18 11:38:07;;;;;;;19.92;8.95;;;;;;;12.21;49.21;100333.50;1681805;85;21093;-78
2021/10/18 11:40:39;;;;;;;15.80;8.00;;;;;;;12.18;50.05;100331.84;1682376;85;21577;-79
2021/10/18 11:43:11;;;;;;;18.40;8.63;;;;;;;12.16;50.90;100324.44;1683263;85;21091;-79
2021/10/18 11:45:44;;;;;;;18.87;8.93;;;;;;;12.19;51.25;100324.30;1691998;83;21140;-78
2021/10/18 11:48:20;;;;;;;15.88;7.78;;;;;;;12.27;51.60;100327.51;1692148;83;21476;-78
2021/10/18 11:50:53;;;;;;;18.60;7.80;;;;;;;12.28;50.98;100326.57;1686428;83;21116;-80
2021/10/18 11:53:22;;;;;;;15.70;8.10;;;;;;;12.22;50.62;100332.59;1686124;83;21029;-81
2021/10/18 11:55:57;;;;;;;18.50;7.25;;;;;;;12.23;51.61;100328.55;1693551;83;21046;-84
2021/10/18 11:58:26;;;;;;;19.80;8.33;;;;;;;12.30;50.90;100328.69;1706286;83;21101;-81
2021/10/18 12:00:59;;;;;;;16.73;8.60;;;;;;;12.34;50.02;100330.30;1718397;83;21160;-82
2021/10/18 12:03:25;;;;;;;13.15;7.42;;;;;;;12.33;49.94;100329.91;1709463;83;21090;-80
2021/10/18 12:05:55;;;;;;;12.60;6.55;;;;;;;12.35;50.09;100331.14;1710671;83;21084;-80
2021/10/18 12:08:28;;;;;;;14.78;7.05;;;;;;;12.39;50.88;100323.03;1707449;83;21113;-78
2021/10/18 12:10:56;;;;;;;16.67;7.35;;;;;;;12.48;51.07;100322.27;1707098;83;21161;-81
2021/10/18 12:13:27;;;;;;;15.35;7.40;;;;;;;12.48;50.49;100327.08;1708625;81;21206;-81
2021/10/18 12:16:20;;;;;;;16.45;8.00;;;;;;;12.44;50.64;100327.27;1708662;83;21086;-81
2021/10/18 12:18:52;;;;;;;14.45;6.72;;;;;;;12.42;50.87;100330.44;1710198;81;21096;-81
2021/10/18 12:21:30;;;;;;;;;;;;;;;12.37;49.99;100328.83;1715678;83;21087;-83
2021/10/18 12:24:03;;;;;;;16.62;7.25;;;;;;;12.34;48.93;100329.44;1710838;80;20204;-82
2021/10/18 12:26:53;;;;;;;13.93;7.62;;;;;;;12.24;49.33;100327.64;1705467;82;21566;-79
2021/10/18 12:29:22;;;;;;;22.00;7.20;;;;;;;12.08;48.85;100329.19;1705004;82;21093;-77
2021/10/18 12:31:52;;;;;;;12.65;7.10;;;;;;;11.96;51.18;100332.71;1701858;83;21141;-77
2021/10/18 12:34:27;;;;;;;15.25;6.70;;;;;;;11.87;51.08;100327.80;1699540;83;21067;-79
2021/10/18 12:37:06;;;;;;;15.00;7.85;;;;;;;11.85;51.81;100329.59;1706719;82;21038;-78
2021/10/18 12:39:43;;;;;;;15.05;7.12;;;;;;;11.77;51.73;100326.39;1699052;83;21151;-79
2021/10/18 12:42:22;;;;;;;17.70;7.55;;;;;;;11.68;51.54;100327.59;1708243;83;21094;-78
2021/10/18 12:44:51;;;;;;;14.63;6.85;;;;;;;11.67;51.39;100328.98;1701856;82;21106;-77